createdAt,value
2022-09-02T06:07:53.704Z,99301.94
2022-09-02T06:10:22.938Z,99308.66
2022-09-02T06:12:51.022Z,99306.88
2022-09-02T06:15:24.250Z,99305.81
2022-09-02T06:17:51.409Z,99308.44
2022-09-02T06:20:18.596Z,99310.94
2022-09-02T06:22:48.810Z,99309.97
2022-09-02T06:25:21.073Z,99315.97
2022-09-02T06:27:49.211Z,99310.81
2022-09-02T06:30:16.458Z,99305.44
2022-09-02T06:32:43.986Z,99299.38
2022-09-02T06:35:20.993Z,99288.06
2022-09-02T06:37:48.495Z,99295.75
2022-09-02T06:40:17.139Z,99295.69
2022-09-02T06:42:45.371Z,99294.66
2022-09-02T06:45:32.582Z,99299.91
2022-09-02T06:48:03.156Z,99297.09
2022-09-02T06:50:45.722Z,99299.47
2022-09-02T06:53:13.567Z,99294.38
2022-09-02T06:55:43.253Z,99296.00
2022-09-02T06:58:13.643Z,99291.56
2022-09-02T07:00:43.745Z,99297.53
2022-09-02T07:03:33.255Z,99295.66
2022-09-02T07:06:06.690Z,99286.06
2022-09-02T07:08:34.644Z,99292.84
2022-09-02T07:11:05.564Z,99292.59
2022-09-02T07:13:33.673Z,99292.44
2022-09-02T07:16:01.300Z,99282.75
2022-09-02T07:18:29.335Z,99285.91
2022-09-02T07:20:57.051Z,99289.13
2022-09-02T07:23:24.658Z,99281.03
2022-09-02T07:25:52.137Z,99291.09
2022-09-02T07:28:20.428Z,99298.56
2022-09-02T07:30:49.080Z,99290.63
2022-09-02T07:33:19.605Z,99287.84
2022-09-02T07:35:47.176Z,99278.09
2022-09-02T07:38:18.237Z,99284.69
2022-09-02T07:40:47.224Z,99285.34
2022-09-02T07:43:15.581Z,99282.38
2022-09-02T07:45:44.036Z,99278.75
2022-09-02T07:48:15.376Z,99287.88
2022-09-02T07:50:42.800Z,99271.44
2022-09-02T07:53:14.235Z,99272.03
2022-09-02T07:55:42.448Z,99273.47
2022-09-02T07:58:10.408Z,99269.75
2022-09-02T08:00:43.268Z,99270.50
2022-09-02T08:03:11.612Z,99271.88
2022-09-02T08:05:47.312Z,99270.75
2022-09-02T08:08:15.609Z,99268.69
2022-09-02T08:10:42.720Z,99268.28
2022-09-02T08:13:10.256Z,99265.25
2022-09-02T08:15:37.475Z,99266.78
2022-09-02T08:18:05.319Z,99261.22
2022-09-02T08:20:32.530Z,99262.56
2022-09-02T08:23:10.670Z,99253.56
2022-09-02T08:25:38.224Z,99258.38
2022-09-02T08:28:05.339Z,99257.91
2022-09-02T08:30:32.573Z,99253.16
2022-09-02T08:32:59.725Z,99250.13
2022-09-02T08:35:27.990Z,99247.09
2022-09-02T08:37:55.212Z,99250.19
2022-09-02T08:40:23.902Z,99261.63
2022-09-02T08:42:54.569Z,99239.78
2022-09-02T08:45:24.334Z,99266.56
2022-09-02T08:48:13.867Z,99240.56
2022-09-02T08:50:44.247Z,99249.66
2022-09-02T08:53:34.866Z,99236.94
2022-09-02T08:56:02.828Z,99231.41
2022-09-02T08:58:38.312Z,99226.41
2022-09-02T09:01:27.527Z,99232.81
2022-09-02T09:04:22.149Z,99225.41
2022-09-02T09:07:04.457Z,99247.75
2022-09-02T09:09:49.760Z,99238.97
2022-09-02T09:12:23.682Z,99249.09
2022-09-02T09:15:12.025Z,99218.72
2022-09-02T09:17:45.006Z,99225.00
2022-09-02T09:20:24.870Z,99218.31
2022-09-02T09:22:52.694Z,99217.75
2022-09-02T09:25:19.932Z,99217.81
2022-09-02T09:27:47.143Z,99205.94
2022-09-02T14:21:01.394Z,99041.88
2022-09-02T14:23:30.476Z,99021.56
2022-09-02T14:25:58.973Z,99016.19
2022-09-02T14:28:33.358Z,99025.16
2022-09-02T14:31:06.077Z,99025.28
2022-09-02T15:09:40.775Z,99033.00
2022-09-02T17:43:19.900Z,99027.78
2022-09-02T17:45:48.429Z,99023.72
2022-09-02T17:48:36.996Z,99032.50
